Time;durP1;ratioP1;P1;durP2;ratioP2;P2;SDS_P1;SDS_P2;PMS_P1;PMS_P2;Temp;Humidity;BMP_temperature;BMP_pressure;BME280_temperature;BME280_humidity;BME280_pressure;Samples;Min_cycle;Max_cycle;Signal;HPM_P1;HPM_P2
2024/02/25 00:01:23;;;;;;;1.27;0.30;;;;;;;4.00;93.10;99773.56;6249944;22;20020;-84
2024/02/25 00:03:50;;;;;;;1.27;0.47;;;;;;;3.99;92.84;99766.69;6248970;22;20024;-84
2024/02/25 00:06:17;;;;;;;1.27;0.85;;;;;;;4.02;93.33;99765.84;6249318;22;20028;-83
2024/02/25 00:08:43;;;;;;;1.25;0.60;;;;;;;3.96;94.22;99771.84;6249442;22;20480;-84
2024/02/25 00:11:11;;;;;;;0.63;0.50;;;;;;;3.95;93.77;99776.16;6250441;22;20023;-82
2024/02/25 00:13:39;;;;;;;2.30;0.55;;;;;;;3.99;93.83;99779.63;6274246;22;20028;-85
2024/02/25 00:16:08;;;;;;;4.00;0.50;;;;;;;4.00;93.47;99785.66;6247330;22;20632;-84
2024/02/25 00:18:35;;;;;;;0.40;0.40;;;;;;;4.00;93.82;99785.66;6248815;22;20042;-84
2024/02/25 00:21:01;;;;;;;0.43;0.43;;;;;;;3.98;93.72;99772.72;6273509;22;20348;-82
2024/02/25 00:23:28;;;;;;;0.75;0.45;;;;;;;3.96;94.06;99779.59;6248905;22;20043;-83
2024/02/25 00:25:55;;;;;;;0.70;0.38;;;;;;;3.96;94.03;99784.78;6249772;22;20323;-83
2024/02/25 00:28:21;;;;;;;1.70;0.25;;;;;;;3.95;94.33;99783.94;6251439;22;20031;-83
2024/02/25 00:30:48;;;;;;;1.08;0.60;;;;;;;3.93;94.29;99780.47;6249102;22;20026;-83
2024/02/25 00:33:14;;;;;;;1.13;0.50;;;;;;;3.91;94.94;99779.59;6274750;22;20349;-83
2024/02/25 00:35:41;;;;;;;0.85;0.50;;;;;;;3.88;95.13;99773.53;6274968;22;20028;-82
2024/02/25 00:38:09;;;;;;;3.20;0.60;;;;;;;3.86;95.51;99786.50;6274421;22;20820;-84
2024/02/25 00:40:36;;;;;;;0.75;0.32;;;;;;;3.84;95.85;99784.75;6249469;22;20020;-83
2024/02/25 00:43:03;;;;;;;1.73;1.27;;;;;;;3.85;96.68;99770.94;6248627;22;20022;-84
2024/02/25 00:45:30;;;;;;;0.70;0.70;;;;;;;3.82;97.02;99771.81;6249207;22;20020;-82
2024/02/25 00:47:57;;;;;;;0.93;0.32;;;;;;;3.80;97.46;99769.19;6274319;22;20028;-84
2024/02/25 00:50:24;;;;;;;2.33;0.52;;;;;;;3.82;97.68;99761.44;6275145;22;20011;-83
2024/02/25 00:52:50;;;;;;;2.83;0.68;;;;;;;3.80;98.47;99766.59;6248324;22;20030;-82
2024/02/25 00:55:17;;;;;;;0.65;0.60;;;;;;;3.80;98.59;99757.97;6274199;22;20099;-84
2024/02/25 00:57:43;;;;;;;1.15;0.43;;;;;;;3.80;98.92;99757.97;6249287;22;20073;-83
2024/02/25 01:00:10;;;;;;;0.50;0.50;;;;;;;3.79;99.05;99757.13;6273277;22;20015;-83
2024/02/25 01:02:36;;;;;;;0.60;0.60;;;;;;;3.78;99.11;99750.22;6248057;22;20047;-84
2024/02/25 01:05:03;;;;;;;0.45;0.40;;;;;;;3.83;99.14;99757.13;6247002;22;20089;-83
2024/02/25 01:07:30;;;;;;;1.25;0.65;;;;;;;3.84;98.97;99759.72;6247985;22;20055;-84
2024/02/25 01:09:57;;;;;;;3.28;1.00;;;;;;;3.82;99.16;99748.50;6273101;22;20074;-84
2024/02/25 01:12:23;;;;;;;2.35;0.50;;;;;;;3.84;99.54;99738.16;6247888;22;20083;-82
2024/02/25 01:14:50;;;;;;;1.27;0.80;;;;;;;3.84;99.85;99738.16;6248257;22;20028;-84
2024/02/25 01:17:17;;;;;;;1.77;0.60;;;;;;;3.85;99.88;99739.88;6274031;22;20039;-82
2024/02/25 01:19:43;;;;;;;0.43;0.43;;;;;;;3.83;100.00;99746.75;6249057;22;20110;-83
2024/02/25 01:22:10;;;;;;;0.60;0.30;;;;;;;3.78;100.00;99733.78;6247158;22;20020;-83
2024/02/25 01:24:36;;;;;;;1.77;1.40;;;;;;;3.77;100.00;99738.13;6246841;22;20050;-83
2024/02/25 01:27:06;;;;;;;2.55;1.85;;;;;;;3.75;100.00;99741.56;6248139;22;20023;-83
2024/02/25 01:29:32;;;;;;;0.47;0.47;;;;;;;3.75;100.00;99736.38;6249283;22;20022;-82
2024/02/25 01:31:59;;;;;;;2.42;0.90;;;;;;;3.74;100.00;99737.22;6247967;22;20054;-83
2024/02/25 01:34:29;;;;;;;1.65;0.60;;;;;;;3.75;100.00;99731.19;6247223;22;20028;-84
2024/02/25 01:36:55;;;;;;;1.95;0.40;;;;;;;3.76;100.00;99733.78;6248351;22;20091;-83
2024/02/25 01:39:22;;;;;;;1.63;0.45;;;;;;;3.75;100.00;99720.84;6247746;22;20027;-83
2024/02/25 01:41:52;;;;;;;1.15;0.47;;;;;;;3.77;100.00;99726.91;6247698;22;20012;-81
2024/02/25 01:44:19;;;;;;;1.35;0.52;;;;;;;3.78;100.00;99726.03;6248049;22;20083;-83
2024/02/25 01:46:46;;;;;;;0.32;0.22;;;;;;;3.77;100.00;99724.31;6247523;22;20115;-84
2024/02/25 01:49:14;;;;;;;1.88;0.50;;;;;;;3.77;100.00;99721.72;6247564;22;20047;-84
2024/02/25 01:51:42;;;;;;;1.40;0.77;;;;;;;3.84;100.00;99722.63;6273354;22;20015;-83
2024/02/25 01:54:09;;;;;;;1.27;0.60;;;;;;;3.82;100.00;99717.44;6272748;22;20012;-83
2024/02/25 01:56:35;;;;;;;0.52;0.52;;;;;;;3.83;100.00;99708.78;6245802;22;20024;-81
2024/02/25 01:59:03;;;;;;;4.95;1.17;;;;;;;3.84;100.00;99713.09;6245914;22;20022;-82
2024/02/25 02:01:34;;;;;;;1.42;0.60;;;;;;;3.83;100.00;99711.38;6247034;22;20058;-81
2024/02/25 02:04:01;;;;;;;3.72;0.45;;;;;;;3.83;100.00;99713.09;6246584;22;20038;-82
2024/02/25 02:06:28;;;;;;;0.73;0.73;;;;;;;3.87;100.00;99705.38;6245412;22;20051;-81
2024/02/25 02:08:54;;;;;;;0.45;0.43;;;;;;;3.86;100.00;99711.41;6247208;22;20030;-83
2024/02/25 02:11:22;;;;;;;0.77;0.28;;;;;;;3.91;100.00;99714.00;6271519;22;20408;-82
2024/02/25 02:13:48;;;;;;;6.32;0.63;;;;;;;3.92;100.00;99707.97;6245429;22;20020;-83
2024/02/25 02:16:16;;;;;;;2.15;0.82;;;;;;;3.91;100.00;99703.63;6244991;22;20051;-83
2024/02/25 02:18:43;;;;;;;1.35;0.32;;;;;;;3.88;100.00;99706.22;6247173;22;20055;-82
2024/02/25 02:21:11;;;;;;;2.17;0.50;;;;;;;3.85;100.00;99701.03;6245757;22;20024;-83
2024/02/25 02:23:37;;;;;;;1.63;0.38;;;;;;;3.85;100.00;99712.25;6273149;22;20016;-82
2024/02/25 02:26:06;;;;;;;2.42;0.77;;;;;;;3.90;100.00;99700.19;6246394;22;20034;-83
2024/02/25 02:28:33;;;;;;;2.10;0.40;;;;;;;3.85;100.00;99695.88;6247094;22;20504;-82
2024/02/25 02:30:59;;;;;;;0.50;0.50;;;;;;;3.86;100.00;99698.47;6246283;22;20433;-84
2024/02/25 02:33:26;;;;;;;2.90;0.20;;;;;;;3.83;100.00;99695.00;6271895;22;20081;-82
2024/02/25 02:35:52;;;;;;;2.50;0.50;;;;;;;3.80;100.00;99694.09;6247033;22;20063;-82
2024/02/25 02:38:21;;;;;;;0.30;0.30;;;;;;;3.79;100.00;99683.75;6245693;22;20085;-82
2024/02/25 02:40:48;;;;;;;1.98;0.63;;;;;;;3.78;100.00;99685.50;6246250;22;20488;-82
2024/02/25 02:43:17;;;;;;;1.65;0.63;;;;;;;3.85;100.00;99680.34;6246977;22;20012;-83
2024/02/25 02:45:44;;;;;;;0.50;0.40;;;;;;;3.83;100.00;99672.53;6272696;22;20115;-83
2024/02/25 02:48:11;;;;;;;0.47;0.40;;;;;;;3.82;100.00;99670.84;6273264;22;20019;-83
2024/02/25 02:50:38;;;;;;;1.20;0.38;;;;;;;3.85;100.00;99672.56;6273790;22;20020;-83
2024/02/25 02:53:05;;;;;;;0.50;0.30;;;;;;;3.84;100.00;99671.69;6248465;22;20039;-82
2024/02/25 02:55:33;;;;;;;0.75;0.28;;;;;;;3.83;100.00;99669.09;6221180;22;20095;-82
2024/02/25 02:57:59;;;;;;;1.35;0.32;;;;;;;3.78;100.00;99662.19;6248752;22;20107;-82
2024/02/25 03:00:28;;;;;;;1.52;0.15;;;;;;;3.80;100.00;99662.19;6274431;22;20126;-81
2024/02/25 03:02:54;;;;;;;0.25;0.10;;;;;;;3.84;100.00;99663.06;6224560;22;20016;-82
2024/02/25 03:05:21;;;;;;;3.10;0.65;;;;;;;3.86;100.00;99669.97;6273441;22;20028;-83
2024/02/25 03:07:49;;;;;;;1.55;0.70;;;;;;;3.89;100.00;99661.34;6274176;22;20077;-82
2024/02/25 03:10:19;;;;;;;1.55;0.50;;;;;;;3.90;100.00;99660.50;6273702;22;20024;-82
2024/02/25 03:12:46;;;;;;;2.65;0.30;;;;;;;3.91;100.00;99657.91;6274992;22;20021;-83
2024/02/25 03:15:13;;;;;;;3.67;0.57;;;;;;;3.90;100.00;99651.00;6273857;22;20020;-82
2024/02/25 03:17:41;;;;;;;0.57;0.50;;;;;;;3.92;100.00;99654.44;6249567;22;20019;-83
2024/02/25 03:20:09;;;;;;;1.00;0.20;;;;;;;3.95;100.00;99653.56;6248012;22;20023;-83
2024/02/25 03:22:36;;;;;;;0.60;0.60;;;;;;;3.96;100.00;99651.00;6273971;22;20224;-83
2024/02/25 03:25:08;;;;;;;0.25;0.25;;;;;;;3.98;100.00;99649.28;6274949;22;20114;-83
2024/02/25 03:27:35;;;;;;;2.83;0.38;;;;;;;4.01;100.00;99648.41;6250838;22;20073;-82
2024/02/25 03:30:02;;;;;;;0.95;0.50;;;;;;;4.06;100.00;99645.84;6249440;22;20027;-82
2024/02/25 03:32:32;;;;;;;1.20;0.40;;;;;;;4.02;100.00;99650.16;6275460;22;20052;-83
2024/02/25 03:34:59;;;;;;;1.08;0.40;;;;;;;4.01;100.00;99648.41;6249389;22;20115;-83
2024/02/25 03:37:25;;;;;;;1.40;0.40;;;;;;;3.99;100.00;99647.56;6273976;22;20504;-83
2024/02/25 03:39:52;;;;;;;0.85;0.22;;;;;;;4.00;100.00;99643.25;6248778;22;20019;-84
2024/02/25 03:42:19;;;;;;;1.20;0.43;;;;;;;4.00;100.00;99643.25;6248759;22;20016;-82
2024/02/25 03:44:45;;;;;;;1.48;0.10;;;;;;;3.97;100.00;99642.34;6249370;22;20015;-83
2024/02/25 03:47:12;;;;;;;1.02;0.43;;;;;;;3.98;100.00;99645.84;6248153;22;20023;-83
2024/02/25 03:49:41;;;;;;;0.30;0.28;;;;;;;3.96;100.00;99647.53;6248919;22;20426;-83
2024/02/25 03:52:10;;;;;;;2.10;1.55;;;;;;;3.97;100.00;99650.13;6274644;22;20103;-85
2024/02/25 03:54:37;;;;;;;0.20;0.20;;;;;;;3.96;100.00;99645.84;6274254;22;20030;-82
2024/02/25 03:57:03;;;;;;;0.82;0.40;;;;;;;3.95;100.00;99649.28;6249011;22;20023;-82
2024/02/25 03:59:30;;;;;;;0.20;0.20;;;;;;;3.95;100.00;99648.41;6248792;22;20078;-82
2024/02/25 04:01:56;;;;;;;0.40;0.30;;;;;;;3.94;100.00;99649.28;6249438;22;20058;-83
2024/02/25 04:04:23;;;;;;;0.55;0.52;;;;;;;3.92;100.00;99649.25;6249339;22;20039;-84
2024/02/25 04:06:50;;;;;;;0.65;0.65;;;;;;;3.93;100.00;99644.97;6249740;22;20022;-82
2024/02/25 04:09:16;;;;;;;1.88;0.50;;;;;;;3.88;100.00;99638.91;6247477;22;20030;-82
2024/02/25 04:11:43;;;;;;;0.43;0.43;;;;;;;3.92;100.00;99635.47;6248309;22;20031;-83
2024/02/25 04:14:12;;;;;;;0.35;0.32;;;;;;;3.94;100.00;99632.00;6274827;22;20018;-83
2024/02/25 04:16:38;;;;;;;3.20;0.77;;;;;;;3.95;100.00;99638.94;6247158;22;20027;-83
2024/02/25 04:19:05;;;;;;;1.55;0.30;;;;;;;3.98;100.00;99638.06;6249202;22;20015;-83
2024/02/25 04:21:31;;;;;;;0.43;0.10;;;;;;;4.05;100.00;99644.13;6247455;22;20027;-82
2024/02/25 04:23:58;;;;;;;3.00;1.20;;;;;;;4.11;99.60;99644.13;6274041;22;20039;-82
2024/02/25 04:26:24;;;;;;;1.40;0.40;;;;;;;4.18;99.12;99640.66;6247660;22;20439;-82
2024/02/25 04:28:51;;;;;;;0.30;0.30;;;;;;;4.17;98.54;99638.06;6249404;22;20022;-83
2024/02/25 04:31:17;;;;;;;0.52;0.45;;;;;;;4.22;98.67;99642.38;6248414;22;20030;-85
2024/02/25 04:33:44;;;;;;;1.27;0.32;;;;;;;4.25;98.57;99633.75;6274650;22;20091;-83
2024/02/25 04:36:18;;;;;;;0.65;0.30;;;;;;;4.30;98.26;99634.63;6246960;22;20043;-83
2024/02/25 04:38:46;;;;;;;;;;;;;;;4.31;98.13;99633.75;6249736;22;20119;-84
2024/02/25 04:41:13;;;;;;;1.00;0.32;;;;;;;4.31;97.82;99633.75;6248278;22;19961;-83
2024/02/25 04:43:40;;;;;;;0.82;0.40;;;;;;;4.31;98.15;99636.34;6248258;22;20066;-83
2024/02/25 04:46:06;;;;;;;0.28;0.28;;;;;;;4.29;98.10;99626.00;6249069;22;20047;-83
2024/02/25 04:48:33;;;;;;;0.20;0.20;;;;;;;4.28;97.83;99623.41;6247473;22;20125;-84
2024/02/25 04:51:00;;;;;;;0.47;0.35;;;;;;;4.29;98.14;99623.41;6248447;22;20019;-83
2024/02/25 04:53:26;;;;;;;0.57;0.20;;;;;;;4.32;97.48;99619.97;6223050;22;20074;-84
2024/02/25 04:55:53;;;;;;;0.30;0.20;;;;;;;4.32;97.29;99617.38;6248221;22;20088;-83
2024/02/25 04:58:20;;;;;;;0.52;0.50;;;;;;;4.39;97.10;99613.03;6246407;22;20092;-84
2024/02/25 05:00:46;;;;;;;0.98;0.55;;;;;;;4.41;97.10;99609.59;6248333;22;20022;-84
2024/02/25 05:03:13;;;;;;;1.00;0.30;;;;;;;4.44;96.86;99606.97;6247493;22;20494;-83
2024/02/25 05:05:40;;;;;;;0.85;0.30;;;;;;;4.48;96.39;99607.84;6247818;22;20034;-82
2024/02/25 05:08:06;;;;;;;1.50;0.30;;;;;;;4.46;96.31;99607.00;6248458;22;20020;-82
2024/02/25 05:10:33;;;;;;;0.32;0.30;;;;;;;4.46;96.07;99596.63;6273470;22;20015;-82
2024/02/25 05:12:59;;;;;;;1.30;0.57;;;;;;;4.49;95.88;99601.81;6247972;22;20023;-82
2024/02/25 05:15:32;;;;;;;4.38;0.55;;;;;;;4.52;95.66;99598.34;6247066;22;20352;-82
2024/02/25 05:18:00;;;;;;;0.98;0.50;;;;;;;4.54;95.48;99599.22;6273005;22;20065;-83
2024/02/25 05:20:26;;;;;;;0.52;0.52;;;;;;;4.58;95.33;99606.13;6247708;22;20085;-81
2024/02/25 05:22:55;;;;;;;0.40;0.28;;;;;;;4.57;94.94;99607.81;6248825;22;20069;-84
2024/02/25 05:25:22;;;;;;;0.55;0.32;;;;;;;4.62;94.90;99613.03;6247297;22;20073;-83
2024/02/25 05:27:48;;;;;;;0.73;0.40;;;;;;;4.66;94.77;99611.28;6247557;22;20020;-84
2024/02/25 05:30:18;;;;;;;1.75;0.20;;;;;;;4.66;95.06;99603.53;6274039;22;20602;-84
2024/02/25 05:32:45;;;;;;;0.22;0.17;;;;;;;4.67;95.11;99607.81;6248035;22;20103;-83
2024/02/25 05:35:12;;;;;;;0.68;0.32;;;;;;;4.68;94.88;99604.38;6247806;22;20071;-84
2024/02/25 05:37:38;;;;;;;1.67;0.40;;;;;;;4.67;95.16;99602.63;6246992;22;20038;-82
2024/02/25 05:40:05;;;;;;;0.63;0.22;;;;;;;4.67;95.39;99602.63;6247774;22;20570;-84
2024/02/25 05:42:34;;;;;;;0.47;0.22;;;;;;;4.67;95.41;99600.91;6246569;22;20007;-83
2024/02/25 05:45:00;;;;;;;1.48;0.88;;;;;;;4.66;95.17;99601.78;6248492;22;20030;-82
2024/02/25 05:47:27;;;;;;;0.65;0.65;;;;;;;4.66;95.18;99596.59;6246400;22;20662;-84
2024/02/25 05:49:55;;;;;;;1.85;0.47;;;;;;;4.66;95.26;99604.38;6248655;22;20349;-84
2024/02/25 05:52:22;;;;;;;0.40;0.40;;;;;;;4.67;94.90;99606.09;6248691;22;20035;-83
2024/02/25 05:54:49;;;;;;;1.58;0.43;;;;;;;4.68;95.05;99607.84;6249094;22;20408;-83
2024/02/25 05:57:16;;;;;;;1.17;0.63;;;;;;;4.71;94.80;99604.38;6248365;22;20081;-83
2024/02/25 05:59:46;;;;;;;1.35;0.50;;;;;;;4.71;94.70;99610.41;6249867;22;20353;-83
2024/02/25 06:02:17;;;;;;;0.30;0.30;;;;;;;4.73;94.45;99607.81;6277079;22;20082;-82
2024/02/25 06:04:43;;;;;;;1.08;0.55;;;;;;;4.72;93.85;99603.47;6247529;22;20513;-84
2024/02/25 06:07:10;;;;;;;0.80;0.70;;;;;;;4.76;94.19;99600.03;6246995;22;20023;-82
2024/02/25 06:09:36;;;;;;;1.48;0.50;;;;;;;4.78;93.62;99604.38;6254483;22;20015;-84
2024/02/25 06:12:04;;;;;;;1.23;0.43;;;;;;;4.79;93.23;99605.22;6254206;22;20030;-83
2024/02/25 06:14:31;;;;;;;2.72;0.75;;;;;;;4.82;92.53;99600.00;6251938;22;20018;-83
2024/02/25 06:16:58;;;;;;;0.93;0.30;;;;;;;4.85;92.28;99599.13;6250816;22;20098;-84
2024/02/25 06:19:25;;;;;;;6.05;1.25;;;;;;;4.84;91.89;99603.47;6251592;22;20106;-82
2024/02/25 06:21:52;;;;;;;0.45;0.30;;;;;;;4.85;91.79;99602.63;6252881;22;20043;-86
2024/02/25 06:24:22;;;;;;;0.90;0.50;;;;;;;4.83;91.96;99608.66;6279717;22;20073;-83
2024/02/25 06:26:51;;;;;;;2.65;0.43;;;;;;;4.86;91.13;99614.69;6277112;22;20022;-83
2024/02/25 06:29:18;;;;;;;1.38;0.50;;;;;;;4.88;90.68;99610.38;6252749;22;20030;-84
2024/02/25 06:31:46;;;;;;;2.00;0.43;;;;;;;4.91;90.11;99599.97;6281752;22;20113;-84
2024/02/25 06:34:12;;;;;;;0.45;0.45;;;;;;;4.91;89.84;99614.69;6282975;22;20015;-84
2024/02/25 06:36:39;;;;;;;2.10;0.60;;;;;;;4.93;89.91;99602.59;6253179;22;20028;-84
2024/02/25 06:39:08;;;;;;;1.00;0.35;;;;;;;4.95;89.60;99611.22;6255797;22;20062;-85
2024/02/25 06:41:35;;;;;;;0.60;0.60;;;;;;;4.97;89.49;99604.31;6255395;22;20050;-84
2024/02/25 06:44:01;;;;;;;6.53;1.83;;;;;;;4.98;89.08;99608.63;6255355;22;20045;-85
2024/02/25 06:46:28;;;;;;;0.30;0.30;;;;;;;4.97;89.48;99609.50;6254376;22;20078;-85
2024/02/25 06:48:55;;;;;;;1.05;0.60;;;;;;;5.00;89.24;99598.25;6279697;22;20008;-85
2024/02/25 06:51:27;;;;;;;0.30;0.30;;;;;;;5.04;89.08;99599.97;6254460;22;20069;-85
2024/02/25 06:53:55;;;;;;;0.82;0.80;;;;;;;4.95;89.26;99601.72;6254874;22;20043;-85
2024/02/25 06:56:22;;;;;;;1.00;0.63;;;;;;;4.94;89.20;99602.59;6254549;22;20034;-83
2024/02/25 06:58:49;;;;;;;0.43;0.43;;;;;;;4.93;88.81;99607.78;6281651;22;20023;-84
2024/02/25 07:01:19;;;;;;;0.82;0.40;;;;;;;4.94;88.79;99618.16;6256781;22;20023;-84
2024/02/25 07:03:46;;;;;;;2.75;0.98;;;;;;;4.95;88.78;99619.88;6252414;22;20016;-83
2024/02/25 07:06:19;;;;;;;0.70;0.50;;;;;;;4.99;88.62;99619.84;6277271;22;20082;-84
2024/02/25 07:08:51;;;;;;;0.50;0.50;;;;;;;5.01;88.49;99618.97;6277441;22;20016;-85
2024/02/25 07:11:20;;;;;;;1.00;0.75;;;;;;;5.06;88.39;99622.44;6278475;22;20024;-85
2024/02/25 07:13:51;;;;;;;1.02;0.60;;;;;;;5.13;87.67;99623.28;6253822;22;20406;-84
2024/02/25 07:16:21;;;;;;;1.58;0.60;;;;;;;5.16;87.58;99623.25;6278418;22;20024;-83
2024/02/25 07:18:50;;;;;;;1.23;0.40;;;;;;;5.20;87.10;99632.78;6278235;22;20030;-85
2024/02/25 07:21:22;;;;;;;0.30;0.30;;;;;;;5.29;86.90;99629.25;6254828;22;20087;-85
2024/02/25 07:23:49;;;;;;;3.37;0.67;;;;;;;5.36;86.63;99625.78;6254154;22;20020;-84
2024/02/25 07:26:25;;;;;;;0.88;0.70;;;;;;;5.38;85.75;99617.97;6254120;22;20095;-84
2024/02/25 07:28:54;;;;;;;0.90;0.82;;;;;;;5.42;85.59;99623.16;6252505;22;20019;-85
2024/02/25 07:31:24;;;;;;;0.70;0.70;;;;;;;5.43;85.62;99621.44;6256451;22;20028;-84
2024/02/25 07:33:51;;;;;;;1.00;0.57;;;;;;;5.47;85.68;99625.72;6280709;22;20043;-84
2024/02/25 07:36:20;;;;;;;2.63;0.60;;;;;;;5.47;85.36;99631.78;6252397;22;20031;-84
2024/02/25 07:38:48;;;;;;;2.30;0.60;;;;;;;5.54;85.07;99624.84;6279530;22;20019;-83
2024/02/25 07:41:25;;;;;;;0.85;0.60;;;;;;;5.64;84.64;99630.84;6253685;22;20022;-84
2024/02/25 07:43:51;;;;;;;2.35;1.85;;;;;;;6.00;82.86;99622.84;6254996;22;20015;-85
2024/02/25 07:46:20;;;;;;;3.47;0.60;;;;;;;5.97;82.97;99629.78;6253802;22;20028;-84
2024/02/25 07:48:49;;;;;;;2.67;0.85;;;;;;;5.91;82.82;99627.22;6284788;22;20026;-83
2024/02/25 07:51:16;;;;;;;1.90;1.00;;;;;;;6.11;82.10;99627.13;6255910;22;20050;-84
2024/02/25 07:53:45;;;;;;;2.70;0.68;;;;;;;6.35;81.58;99625.22;6256729;22;20079;-85
2024/02/25 07:56:27;;;;;;;1.85;1.00;;;;;;;6.39;81.22;99610.44;6282959;22;20055;-84
2024/02/25 07:58:55;;;;;;;1.42;0.60;;;;;;;6.17;82.68;99613.22;6280886;22;20022;-83
2024/02/25 08:01:22;;;;;;;1.05;0.70;;;;;;;6.20;82.51;99623.56;6253864;22;20020;-84
2024/02/25 08:03:49;;;;;;;0.98;0.63;;;;;;;6.23;82.61;99625.28;6261326;22;20079;-84
2024/02/25 08:06:26;;;;;;;1.40;0.75;;;;;;;6.42;82.53;99623.41;6258024;22;20024;-84
2024/02/25 08:08:55;;;;;;;1.95;0.43;;;;;;;6.51;82.33;99619.88;6258586;22;20114;-83
2024/02/25 08:11:23;;;;;;;2.55;0.47;;;;;;;6.56;82.24;99626.75;6281945;22;20333;-85
2024/02/25 08:13:52;;;;;;;0.40;0.40;;;;;;;6.65;82.59;99618.00;6260204;22;20019;-85
2024/02/25 08:16:21;;;;;;;0.82;0.38;;;;;;;6.76;82.11;99621.34;6253410;22;20438;-85
2024/02/25 08:18:48;;;;;;;0.38;0.38;;;;;;;6.87;81.69;99622.97;6278690;22;20023;-86
2024/02/25 08:21:19;;;;;;;0.50;0.50;;;;;;;6.98;81.09;99621.13;6259250;22;20031;-86
2024/02/25 08:23:49;;;;;;;1.67;0.60;;;;;;;7.24;80.56;99614.78;6258570;22;20042;-86
2024/02/25 08:26:21;;;;;;;0.22;0.20;;;;;;;7.31;79.43;99618.16;6256910;22;20023;-85
2024/02/25 08:28:48;;;;;;;0.43;0.43;;;;;;;7.26;79.39;99613.88;6281742;22;20111;-85
2024/02/25 08:31:21;;;;;;;0.93;0.50;;;;;;;7.23;80.27;99619.09;6257277;22;20087;-84
2024/02/25 08:33:52;;;;;;;1.00;0.43;;;;;;;7.26;79.79;99620.81;6282784;22;20081;-84
2024/02/25 08:36:23;;;;;;;0.63;0.40;;;;;;;7.20;80.40;99618.31;6289099;22;20413;-84
2024/02/25 08:38:50;;;;;;;1.42;0.45;;;;;;;7.04;80.04;99613.25;6256254;22;20024;-84
2024/02/25 08:41:17;;;;;;;2.85;0.38;;;;;;;7.05;80.99;99612.41;6255614;22;20530;-85
2024/02/25 08:43:44;;;;;;;1.30;0.20;;;;;;;7.11;80.74;99616.66;6279061;22;20026;-85
2024/02/25 08:46:13;;;;;;;1.52;0.77;;;;;;;7.06;81.08;99618.44;6256834;22;20169;-86
2024/02/25 08:48:40;;;;;;;0.93;0.60;;;;;;;7.05;80.72;99609.78;6254872;22;20019;-84
2024/02/25 08:51:10;;;;;;;2.47;0.30;;;;;;;7.08;80.17;99612.34;6256129;22;20046;-84
2024/02/25 08:53:39;;;;;;;3.47;0.93;;;;;;;7.08;80.47;99620.16;6283261;22;20130;-85
2024/02/25 08:56:08;;;;;;;0.60;0.32;;;;;;;7.12;79.99;99619.22;6251166;22;20402;-84
2024/02/25 08:58:40;;;;;;;0.63;0.45;;;;;;;7.32;79.35;99619.88;6253347;22;20077;-84
2024/02/25 09:01:06;;;;;;;0.65;0.40;;;;;;;7.60;78.47;99615.16;6256859;22;20023;-84
2024/02/25 09:03:33;;;;;;;0.50;0.40;;;;;;;7.55;77.64;99620.44;6256099;22;20050;-86
2024/02/25 09:06:06;;;;;;;2.05;0.60;;;;;;;7.68;76.63;99615.06;6255105;22;20026;-85
2024/02/25 09:08:33;;;;;;;1.80;0.50;;;;;;;7.64;77.35;99621.19;6259782;22;20070;-86
2024/02/25 09:10:59;;;;;;;0.77;0.68;;;;;;;7.74;76.82;99621.06;6262438;22;20016;-85
2024/02/25 09:13:26;;;;;;;2.45;0.80;;;;;;;7.80;75.84;99620.13;6256036;22;20050;-85
2024/02/25 09:15:54;;;;;;;2.13;0.88;;;;;;;7.99;75.82;99622.44;6253175;22;20020;-85
2024/02/25 09:18:24;;;;;;;1.90;0.60;;;;;;;7.99;75.42;99618.13;6257686;22;20020;-84
2024/02/25 09:20:50;;;;;;;1.45;0.50;;;;;;;8.15;74.25;99623.94;6254879;22;20023;-85
2024/02/25 09:23:22;;;;;;;2.42;0.45;;;;;;;8.26;73.72;99616.78;6254229;22;20015;-84
2024/02/25 09:25:51;;;;;;;1.38;0.40;;;;;;;8.30;73.85;99619.38;6252778;22;20069;-85
2024/02/25 09:28:24;;;;;;;0.68;0.40;;;;;;;8.14;73.62;99617.00;6251486;22;20019;-85
2024/02/25 09:30:54;;;;;;;0.55;0.28;;;;;;;8.39;73.11;99622.66;6252820;22;20024;-83
2024/02/25 09:33:30;;;;;;;0.57;0.50;;;;;;;8.45;72.56;99611.28;6276173;22;20028;-84
2024/02/25 09:36:10;;;;;;;0.50;0.30;;;;;;;8.28;72.71;99620.25;6250758;22;20024;-83
2024/02/25 09:38:39;;;;;;;1.75;0.60;;;;;;;8.13;73.43;99620.50;6273197;22;20100;-83
2024/02/25 09:41:05;;;;;;;0.70;0.40;;;;;;;7.89;74.63;99625.19;6272737;22;20062;-83
2024/02/25 09:43:33;;;;;;;0.68;0.50;;;;;;;7.92;74.65;99630.34;6247795;22;20358;-84
2024/02/25 09:45:59;;;;;;;2.50;0.30;;;;;;;8.14;74.08;99631.78;6246283;22;20468;-83
2024/02/25 09:48:29;;;;;;;0.20;0.20;;;;;;;8.30;72.81;99635.84;6247788;22;20353;-85
2024/02/25 09:50:56;;;;;;;0.88;0.20;;;;;;;7.98;74.20;99634.63;6249673;22;20134;-83
2024/02/25 09:53:24;;;;;;;1.30;0.30;;;;;;;7.75;75.61;99627.13;6272633;22;20015;-83
2024/02/25 09:55:50;;;;;;;0.30;0.30;;;;;;;7.88;75.89;99643.47;6225272;22;20424;-84
2024/02/25 09:58:17;;;;;;;0.57;0.57;;;;;;;7.43;79.54;99644.91;6255327;22;20023;-85
2024/02/25 10:00:52;;;;;;;0.45;0.40;;;;;;;6.96;86.33;99661.91;6257224;22;20022;-84
2024/02/25 10:03:19;;;;;;;0.40;0.40;;;;;;;6.70;91.47;99651.75;6256999;22;20024;-84
2024/02/25 10:05:45;;;;;;;0.50;0.47;;;;;;;6.62;95.86;99650.09;6253984;22;20039;-84
2024/02/25 10:08:13;;;;;;;0.30;0.17;;;;;;;6.42;99.97;99644.22;6252938;22;20023;-85
2024/02/25 10:10:41;;;;;;;0.45;0.40;;;;;;;6.36;100.00;99636.44;6252732;22;20081;-83
2024/02/25 10:13:11;;;;;;;0.38;0.38;;;;;;;6.46;100.00;99638.09;6251125;22;20089;-84
2024/02/25 10:15:41;;;;;;;1.42;0.50;;;;;;;6.88;100.00;99640.31;6279728;22;20011;-83
2024/02/25 10:18:29;;;;;;;1.10;0.38;;;;;;;7.41;99.13;99638.84;6255588;22;20019;-84
2024/02/25 10:21:02;;;;;;;0.52;0.52;;;;;;;7.90;94.94;99632.13;6256656;22;20047;-83
2024/02/25 10:23:30;;;;;;;0.77;0.40;;;;;;;7.98;93.52;99636.34;6254616;22;20023;-84
2024/02/25 10:26:12;;;;;;;0.50;0.45;;;;;;;8.05;92.83;99631.03;6250524;22;20027;-84
2024/02/25 10:28:48;;;;;;;2.58;0.40;;;;;;;8.30;90.41;99630.66;6250003;22;20063;-84
2024/02/25 10:31:15;;;;;;;0.40;0.35;;;;;;;8.55;88.76;99619.84;6250753;22;20106;-83
2024/02/25 10:33:46;;;;;;;0.95;0.70;;;;;;;8.66;86.52;99619.69;6251366;22;20607;-85
2024/02/25 10:36:16;;;;;;;0.50;0.50;;;;;;;8.65;83.26;99620.56;6251867;22;20020;-82
2024/02/25 10:38:45;;;;;;;0.30;0.30;;;;;;;8.92;83.76;99614.81;6251203;22;20066;-83
2024/02/25 10:41:19;;;;;;;0.43;0.40;;;;;;;8.90;80.81;99613.13;6251883;22;20054;-84
2024/02/25 10:43:55;;;;;;;0.20;0.20;;;;;;;8.61;80.98;99617.97;6245971;22;20026;-84
2024/02/25 10:46:40;;;;;;;0.57;0.30;;;;;;;8.52;81.55;99612.94;6250247;22;20032;-82
2024/02/25 10:49:09;;;;;;;0.20;0.20;;;;;;;8.57;82.38;99612.84;6274585;22;20118;-84
2024/02/25 10:51:36;;;;;;;1.98;0.60;;;;;;;8.71;81.61;99610.88;6250766;22;20024;-85
2024/02/25 10:54:04;;;;;;;0.25;0.25;;;;;;;8.65;80.02;99605.75;6249216;22;20026;-85
2024/02/25 10:56:31;;;;;;;0.85;0.30;;;;;;;8.92;78.66;99601.78;6248570;22;20019;-84
2024/02/25 10:59:00;;;;;;;0.73;0.20;;;;;;;9.22;77.01;99609.03;6247906;22;20022;-85
2024/02/25 11:01:28;;;;;;;0.20;0.20;;;;;;;9.43;73.99;99597.28;6247846;22;20019;-83
2024/02/25 11:03:58;;;;;;;0.30;0.30;;;;;;;9.56;75.42;99601.34;6248915;22;20020;-83
2024/02/25 11:06:39;;;;;;;0.98;0.75;;;;;;;9.99;72.20;99598.69;6280049;22;20019;-85
2024/02/25 11:09:12;;;;;;;0.95;0.28;;;;;;;10.24;70.97;99602.38;6257626;22;20024;-84
2024/02/25 11:11:45;;;;;;;0.25;0.25;;;;;;;10.69;70.05;99601.31;6279823;22;20026;-84
2024/02/25 11:14:16;;;;;;;0.73;0.38;;;;;;;10.26;68.67;99599.75;6251188;22;20079;-83
2024/02/25 11:16:50;;;;;;;0.40;0.20;;;;;;;10.40;67.63;99599.44;6251314;22;20027;-85
2024/02/25 11:19:21;;;;;;;0.30;0.30;;;;;;;10.04;68.02;99596.81;6251506;22;20026;-83
2024/02/25 11:21:56;;;;;;;0.68;0.50;;;;;;;10.49;67.74;99590.50;6252024;22;20027;-83
2024/02/25 11:24:56;;;;;;;0.25;0.17;;;;;;;10.26;68.19;99599.75;6277386;22;20019;-83
2024/02/25 11:27:22;;;;;;;0.20;0.20;;;;;;;10.24;66.85;99597.16;6217966;22;20027;-84
2024/02/25 11:30:15;;;;;;;0.17;0.10;;;;;;;9.90;67.19;99595.34;6275607;22;20019;-83
2024/02/25 11:32:42;;;;;;;0.20;0.20;;;;;;;10.18;67.41;99599.06;6252727;22;20026;-84
2024/02/25 11:35:10;;;;;;;0.25;0.25;;;;;;;10.42;66.78;99595.03;6252457;22;20019;-82
2024/02/25 11:37:44;;;;;;;0.43;0.25;;;;;;;10.10;66.79;99599.25;6252742;22;20027;-84
2024/02/25 11:40:12;;;;;;;0.55;0.32;;;;;;;9.87;67.75;99594.59;6250386;22;20069;-84
2024/02/25 11:42:41;;;;;;;0.38;0.30;;;;;;;9.90;68.91;99582.28;6251603;22;20376;-83
2024/02/25 11:45:22;;;;;;;0.20;0.20;;;;;;;9.64;68.84;99585.50;6252093;22;20023;-83